sensor_id;sensor_type;location;lat;lon;timestamp;P1;durP1;ratioP1;P2;durP2;ratioP2
16922;SDS011;8578;50.938;13.556;2023-04-25T00:01:19;6.10;;;3.23;;
16922;SDS011;8578;50.938;13.556;2023-04-25T00:03:47;4.00;;;2.77;;
16922;SDS011;8578;50.938;13.556;2023-04-25T00:06:17;4.43;;;3.00;;
16922;SDS011;8578;50.938;13.556;2023-04-25T00:08:45;4.97;;;2.90;;
16922;SDS011;8578;50.938;13.556;2023-04-25T00:11:12;4.80;;;2.90;;
16922;SDS011;8578;50.938;13.556;2023-04-25T00:13:40;5.57;;;2.80;;
16922;SDS011;8578;50.938;13.556;2023-04-25T00:16:08;4.50;;;2.70;;
16922;SDS011;8578;50.938;13.556;2023-04-25T00:18:35;5.60;;;3.33;;
16922;SDS011;8578;50.938;13.556;2023-04-25T00:21:02;4.90;;;2.83;;
16922;SDS011;8578;50.938;13.556;2023-04-25T00:23:33;4.43;;;2.87;;
16922;SDS011;8578;50.938;13.556;2023-04-25T00:26:02;4.27;;;2.93;;
16922;SDS011;8578;50.938;13.556;2023-04-25T00:28:30;4.67;;;2.83;;
16922;SDS011;8578;50.938;13.556;2023-04-25T00:30:57;5.03;;;2.87;;
16922;SDS011;8578;50.938;13.556;2023-04-25T00:33:25;6.23;;;3.20;;
16922;SDS011;8578;50.938;13.556;2023-04-25T00:35:53;5.23;;;2.90;;
16922;SDS011;8578;50.938;13.556;2023-04-25T00:38:22;5.87;;;3.37;;
16922;SDS011;8578;50.938;13.556;2023-04-25T00:40:51;3.70;;;2.63;;
16922;SDS011;8578;50.938;13.556;2023-04-25T00:43:20;4.87;;;2.83;;
16922;SDS011;8578;50.938;13.556;2023-04-25T00:45:48;6.33;;;3.50;;
16922;SDS011;8578;50.938;13.556;2023-04-25T00:48:16;6.03;;;3.07;;
16922;SDS011;8578;50.938;13.556;2023-04-25T00:50:45;5.30;;;2.97;;
16922;SDS011;8578;50.938;13.556;2023-04-25T00:53:15;5.60;;;3.23;;
16922;SDS011;8578;50.938;13.556;2023-04-25T00:55:42;5.40;;;3.37;;
16922;SDS011;8578;50.938;13.556;2023-04-25T00:58:11;7.07;;;3.40;;
16922;SDS011;8578;50.938;13.556;2023-04-25T01:00:39;7.07;;;3.20;;
16922;SDS011;8578;50.938;13.556;2023-04-25T01:03:07;5.93;;;3.77;;
16922;SDS011;8578;50.938;13.556;2023-04-25T01:05:36;7.00;;;3.50;;
16922;SDS011;8578;50.938;13.556;2023-04-25T01:08:04;6.20;;;3.37;;
16922;SDS011;8578;50.938;13.556;2023-04-25T01:10:31;4.50;;;3.10;;
16922;SDS011;8578;50.938;13.556;2023-04-25T01:12:59;6.67;;;3.30;;
16922;SDS011;8578;50.938;13.556;2023-04-25T01:15:28;5.27;;;3.50;;
16922;SDS011;8578;50.938;13.556;2023-04-25T01:17:56;6.13;;;3.43;;
16922;SDS011;8578;50.938;13.556;2023-04-25T01:20:24;9.50;;;3.00;;
16922;SDS011;8578;50.938;13.556;2023-04-25T01:22:54;6.17;;;3.50;;
16922;SDS011;8578;50.938;13.556;2023-04-25T01:25:23;5.73;;;3.63;;
16922;SDS011;8578;50.938;13.556;2023-04-25T01:27:50;4.80;;;3.37;;
16922;SDS011;8578;50.938;13.556;2023-04-25T01:30:18;6.90;;;3.73;;
16922;SDS011;8578;50.938;13.556;2023-04-25T01:32:46;4.87;;;3.40;;
16922;SDS011;8578;50.938;13.556;2023-04-25T01:35:16;6.23;;;3.43;;
16922;SDS011;8578;50.938;13.556;2023-04-25T01:37:44;5.57;;;3.10;;
16922;SDS011;8578;50.938;13.556;2023-04-25T01:40:13;7.63;;;3.03;;
16922;SDS011;8578;50.938;13.556;2023-04-25T01:42:42;6.07;;;3.07;;
16922;SDS011;8578;50.938;13.556;2023-04-25T01:45:10;9.17;;;4.00;;
16922;SDS011;8578;50.938;13.556;2023-04-25T01:47:38;6.57;;;3.73;;
16922;SDS011;8578;50.938;13.556;2023-04-25T01:50:08;6.27;;;3.97;;
16922;SDS011;8578;50.938;13.556;2023-04-25T01:52:36;7.77;;;3.67;;
16922;SDS011;8578;50.938;13.556;2023-04-25T01:55:05;6.43;;;3.83;;
16922;SDS011;8578;50.938;13.556;2023-04-25T01:57:37;4.80;;;3.30;;
16922;SDS011;8578;50.938;13.556;2023-04-25T02:00:05;4.43;;;3.07;;
16922;SDS011;8578;50.938;13.556;2023-04-25T02:02:37;4.90;;;3.30;;
16922;SDS011;8578;50.938;13.556;2023-04-25T02:05:14;6.77;;;3.67;;
16922;SDS011;8578;50.938;13.556;2023-04-25T02:07:42;8.57;;;3.53;;
16922;SDS011;8578;50.938;13.556;2023-04-25T02:10:10;7.17;;;3.43;;
16922;SDS011;8578;50.938;13.556;2023-04-25T02:12:51;6.73;;;3.37;;
16922;SDS011;8578;50.938;13.556;2023-04-25T02:15:37;6.43;;;3.67;;
16922;SDS011;8578;50.938;13.556;2023-04-25T02:18:15;7.27;;;3.47;;
16922;SDS011;8578;50.938;13.556;2023-04-25T02:20:43;4.70;;;3.20;;
16922;SDS011;8578;50.938;13.556;2023-04-25T02:23:11;5.63;;;3.33;;
16922;SDS011;8578;50.938;13.556;2023-04-25T02:25:41;7.57;;;3.83;;
16922;SDS011;8578;50.938;13.556;2023-04-25T02:28:10;5.50;;;3.50;;
16922;SDS011;8578;50.938;13.556;2023-04-25T02:30:38;9.57;;;3.97;;
16922;SDS011;8578;50.938;13.556;2023-04-25T02:33:06;7.07;;;4.10;;
16922;SDS011;8578;50.938;13.556;2023-04-25T02:35:35;7.20;;;4.27;;
16922;SDS011;8578;50.938;13.556;2023-04-25T02:38:02;6.43;;;4.33;;
16922;SDS011;8578;50.938;13.556;2023-04-25T02:40:31;9.37;;;4.43;;
16922;SDS011;8578;50.938;13.556;2023-04-25T02:42:59;9.50;;;4.77;;
16922;SDS011;8578;50.938;13.556;2023-04-25T02:45:28;6.23;;;4.23;;
16922;SDS011;8578;50.938;13.556;2023-04-25T02:47:55;7.80;;;3.87;;
16922;SDS011;8578;50.938;13.556;2023-04-25T02:50:23;7.60;;;4.50;;
16922;SDS011;8578;50.938;13.556;2023-04-25T02:52:51;6.67;;;3.87;;
16922;SDS011;8578;50.938;13.556;2023-04-25T02:55:24;8.73;;;4.03;;
16922;SDS011;8578;50.938;13.556;2023-04-25T02:57:58;9.77;;;4.43;;
16922;SDS011;8578;50.938;13.556;2023-04-25T03:00:41;7.47;;;3.93;;
16922;SDS011;8578;50.938;13.556;2023-04-25T03:03:08;7.83;;;3.60;;
16922;SDS011;8578;50.938;13.556;2023-04-25T03:05:36;6.67;;;4.00;;
16922;SDS011;8578;50.938;13.556;2023-04-25T03:08:04;7.77;;;4.13;;
16922;SDS011;8578;50.938;13.556;2023-04-25T03:10:33;7.77;;;4.03;;
16922;SDS011;8578;50.938;13.556;2023-04-25T03:13:04;9.07;;;4.10;;
16922;SDS011;8578;50.938;13.556;2023-04-25T03:15:32;6.00;;;3.90;;
16922;SDS011;8578;50.938;13.556;2023-04-25T03:18:01;6.13;;;4.30;;
16922;SDS011;8578;50.938;13.556;2023-04-25T03:20:29;7.37;;;4.00;;
16922;SDS011;8578;50.938;13.556;2023-04-25T03:22:57;8.43;;;4.47;;
16922;SDS011;8578;50.938;13.556;2023-04-25T03:25:26;9.67;;;4.37;;
16922;SDS011;8578;50.938;13.556;2023-04-25T03:27:54;8.67;;;4.10;;
16922;SDS011;8578;50.938;13.556;2023-04-25T03:30:21;9.50;;;4.40;;
16922;SDS011;8578;50.938;13.556;2023-04-25T03:32:49;8.90;;;4.97;;
16922;SDS011;8578;50.938;13.556;2023-04-25T03:35:18;5.77;;;3.87;;
16922;SDS011;8578;50.938;13.556;2023-04-25T03:37:45;5.83;;;4.13;;
16922;SDS011;8578;50.938;13.556;2023-04-25T03:40:19;6.80;;;4.37;;
16922;SDS011;8578;50.938;13.556;2023-04-25T03:43:06;6.93;;;4.37;;
16922;SDS011;8578;50.938;13.556;2023-04-25T03:45:35;7.60;;;4.47;;
16922;SDS011;8578;50.938;13.556;2023-04-25T03:48:03;6.57;;;4.23;;
16922;SDS011;8578;50.938;13.556;2023-04-25T03:50:33;5.47;;;3.73;;
16922;SDS011;8578;50.938;13.556;2023-04-25T03:53:02;6.67;;;4.20;;
16922;SDS011;8578;50.938;13.556;2023-04-25T03:55:38;7.03;;;4.07;;
16922;SDS011;8578;50.938;13.556;2023-04-25T03:58:08;7.03;;;3.83;;
16922;SDS011;8578;50.938;13.556;2023-04-25T04:00:37;10.90;;;4.03;;
16922;SDS011;8578;50.938;13.556;2023-04-25T04:03:04;12.37;;;3.73;;
16922;SDS011;8578;50.938;13.556;2023-04-25T04:05:34;9.20;;;4.07;;
16922;SDS011;8578;50.938;13.556;2023-04-25T04:08:01;8.47;;;4.23;;
16922;SDS011;8578;50.938;13.556;2023-04-25T04:10:30;8.83;;;3.67;;
16922;SDS011;8578;50.938;13.556;2023-04-25T04:12:58;5.60;;;3.60;;
16922;SDS011;8578;50.938;13.556;2023-04-25T04:15:25;6.37;;;3.43;;
16922;SDS011;8578;50.938;13.556;2023-04-25T04:17:54;6.17;;;3.70;;
16922;SDS011;8578;50.938;13.556;2023-04-25T04:20:21;6.60;;;3.37;;
16922;SDS011;8578;50.938;13.556;2023-04-25T04:22:50;7.10;;;3.30;;
16922;SDS011;8578;50.938;13.556;2023-04-25T04:25:18;7.00;;;3.20;;
16922;SDS011;8578;50.938;13.556;2023-04-25T04:28:11;8.80;;;3.50;;
16922;SDS011;8578;50.938;13.556;2023-04-25T04:30:53;5.13;;;2.80;;
16922;SDS011;8578;50.938;13.556;2023-04-25T04:33:21;7.87;;;3.20;;
16922;SDS011;8578;50.938;13.556;2023-04-25T04:35:55;5.80;;;3.60;;
16922;SDS011;8578;50.938;13.556;2023-04-25T04:38:25;6.43;;;3.13;;
16922;SDS011;8578;50.938;13.556;2023-04-25T04:40:55;10.03;;;3.30;;
16922;SDS011;8578;50.938;13.556;2023-04-25T04:43:43;6.03;;;3.70;;
16922;SDS011;8578;50.938;13.556;2023-04-25T04:46:27;6.90;;;3.37;;
16922;SDS011;8578;50.938;13.556;2023-04-25T04:49:30;7.73;;;3.40;;
16922;SDS011;8578;50.938;13.556;2023-04-25T04:52:17;6.40;;;3.53;;
16922;SDS011;8578;50.938;13.556;2023-04-25T04:55:02;6.97;;;3.40;;
16922;SDS011;8578;50.938;13.556;2023-04-25T04:57:51;6.77;;;3.63;;
16922;SDS011;8578;50.938;13.556;2023-04-25T05:00:31;5.97;;;2.80;;
16922;SDS011;8578;50.938;13.556;2023-04-25T05:03:18;7.37;;;3.27;;
16922;SDS011;8578;50.938;13.556;2023-04-25T05:06:03;6.80;;;3.43;;
16922;SDS011;8578;50.938;13.556;2023-04-25T05:08:42;8.23;;;3.60;;
16922;SDS011;8578;50.938;13.556;2023-04-25T05:11:25;2.73;;;1.07;;
16922;SDS011;8578;50.938;13.556;2023-04-25T05:14:02;9.10;;;3.00;;
16922;SDS011;8578;50.938;13.556;2023-04-25T05:16:47;7.20;;;2.97;;
16922;SDS011;8578;50.938;13.556;2023-04-25T05:19:35;6.07;;;3.30;;
16922;SDS011;8578;50.938;13.556;2023-04-25T05:22:23;5.80;;;3.47;;
16922;SDS011;8578;50.938;13.556;2023-04-25T05:25:12;5.93;;;3.10;;
16922;SDS011;8578;50.938;13.556;2023-04-25T05:28:11;5.10;;;3.27;;
16922;SDS011;8578;50.938;13.556;2023-04-25T05:31:09;4.80;;;2.83;;
16922;SDS011;8578;50.938;13.556;2023-04-25T05:33:44;5.13;;;3.00;;
16922;SDS011;8578;50.938;13.556;2023-04-25T05:36:12;5.33;;;3.07;;
16922;SDS011;8578;50.938;13.556;2023-04-25T05:38:40;6.77;;;3.27;;
16922;SDS011;8578;50.938;13.556;2023-04-25T05:41:36;6.10;;;2.77;;
16922;SDS011;8578;50.938;13.556;2023-04-25T05:44:24;4.20;;;2.70;;
16922;SDS011;8578;50.938;13.556;2023-04-25T05:47:13;6.07;;;2.90;;
16922;SDS011;8578;50.938;13.556;2023-04-25T05:49:54;5.73;;;3.10;;
16922;SDS011;8578;50.938;13.556;2023-04-25T05:52:32;5.53;;;3.00;;
16922;SDS011;8578;50.938;13.556;2023-04-25T05:55:09;6.60;;;3.07;;
16922;SDS011;8578;50.938;13.556;2023-04-25T05:57:37;7.73;;;3.03;;
16922;SDS011;8578;50.938;13.556;2023-04-25T06:00:09;5.90;;;3.30;;
16922;SDS011;8578;50.938;13.556;2023-04-25T06:02:40;5.00;;;2.97;;
16922;SDS011;8578;50.938;13.556;2023-04-25T06:05:10;5.43;;;3.27;;
16922;SDS011;8578;50.938;13.556;2023-04-25T06:07:38;11.50;;;3.37;;
16922;SDS011;8578;50.938;13.556;2023-04-25T06:10:06;7.03;;;3.60;;
16922;SDS011;8578;50.938;13.556;2023-04-25T06:12:34;5.20;;;3.43;;
16922;SDS011;8578;50.938;13.556;2023-04-25T06:15:03;8.07;;;3.97;;
16922;SDS011;8578;50.938;13.556;2023-04-25T06:17:50;6.10;;;3.43;;
16922;SDS011;8578;50.938;13.556;2023-04-25T06:20:18;6.80;;;3.73;;
16922;SDS011;8578;50.938;13.556;2023-04-25T06:22:49;6.00;;;3.33;;
16922;SDS011;8578;50.938;13.556;2023-04-25T06:25:18;7.47;;;3.77;;
16922;SDS011;8578;50.938;13.556;2023-04-25T06:27:46;6.87;;;3.93;;
16922;SDS011;8578;50.938;13.556;2023-04-25T06:30:15;5.13;;;3.23;;
16922;SDS011;8578;50.938;13.556;2023-04-25T06:32:44;7.60;;;2.93;;
16922;SDS011;8578;50.938;13.556;2023-04-25T06:35:14;7.67;;;3.63;;
16922;SDS011;8578;50.938;13.556;2023-04-25T06:37:41;6.10;;;3.13;;
16922;SDS011;8578;50.938;13.556;2023-04-25T06:40:09;7.77;;;3.83;;
16922;SDS011;8578;50.938;13.556;2023-04-25T06:42:37;6.90;;;3.70;;
16922;SDS011;8578;50.938;13.556;2023-04-25T06:45:23;5.93;;;3.50;;
16922;SDS011;8578;50.938;13.556;2023-04-25T06:47:51;7.13;;;3.77;;
16922;SDS011;8578;50.938;13.556;2023-04-25T06:50:20;7.80;;;4.07;;
16922;SDS011;8578;50.938;13.556;2023-04-25T06:52:48;8.93;;;3.80;;
16922;SDS011;8578;50.938;13.556;2023-04-25T06:55:17;11.07;;;4.03;;
16922;SDS011;8578;50.938;13.556;2023-04-25T06:58:04;8.87;;;4.20;;
16922;SDS011;8578;50.938;13.556;2023-04-25T07:00:50;6.47;;;3.60;;
16922;SDS011;8578;50.938;13.556;2023-04-25T07:03:21;8.23;;;2.93;;
16922;SDS011;8578;50.938;13.556;2023-04-25T07:05:51;6.30;;;3.90;;
16922;SDS011;8578;50.938;13.556;2023-04-25T07:08:19;9.03;;;3.70;;
16922;SDS011;8578;50.938;13.556;2023-04-25T07:10:47;5.47;;;3.50;;
16922;SDS011;8578;50.938;13.556;2023-04-25T07:13:15;10.10;;;4.13;;
16922;SDS011;8578;50.938;13.556;2023-04-25T07:15:43;9.83;;;4.23;;
16922;SDS011;8578;50.938;13.556;2023-04-25T07:18:11;6.17;;;4.07;;
16922;SDS011;8578;50.938;13.556;2023-04-25T07:20:39;6.97;;;3.50;;
16922;SDS011;8578;50.938;13.556;2023-04-25T07:23:08;7.97;;;3.77;;
16922;SDS011;8578;50.938;13.556;2023-04-25T07:25:35;9.40;;;4.23;;
16922;SDS011;8578;50.938;13.556;2023-04-25T07:28:03;8.27;;;4.00;;
16922;SDS011;8578;50.938;13.556;2023-04-25T07:30:31;8.77;;;4.00;;
16922;SDS011;8578;50.938;13.556;2023-04-25T07:33:02;8.03;;;4.03;;
16922;SDS011;8578;50.938;13.556;2023-04-25T07:35:30;7.63;;;3.83;;
16922;SDS011;8578;50.938;13.556;2023-04-25T07:37:58;7.33;;;3.77;;
16922;SDS011;8578;50.938;13.556;2023-04-25T07:40:27;7.77;;;3.73;;
16922;SDS011;8578;50.938;13.556;2023-04-25T07:43:00;4.60;;;2.03;;
16922;SDS011;8578;50.938;13.556;2023-04-25T07:45:35;5.57;;;2.77;;
16922;SDS011;8578;50.938;13.556;2023-04-25T07:48:03;6.40;;;3.37;;
16922;SDS011;8578;50.938;13.556;2023-04-25T07:50:38;2.67;;;1.90;;
16922;SDS011;8578;50.938;13.556;2023-04-25T07:53:05;2.20;;;1.77;;
16922;SDS011;8578;50.938;13.556;2023-04-25T07:55:43;3.97;;;2.10;;
16922;SDS011;8578;50.938;13.556;2023-04-25T07:58:15;4.90;;;2.77;;
16922;SDS011;8578;50.938;13.556;2023-04-25T08:00:50;4.10;;;2.40;;
16922;SDS011;8578;50.938;13.556;2023-04-25T08:03:56;2.30;;;1.27;;
16922;SDS011;8578;50.938;13.556;2023-04-25T08:06:34;2.10;;;1.17;;
16922;SDS011;8578;50.938;13.556;2023-04-25T08:09:07;2.93;;;1.50;;
16922;SDS011;8578;50.938;13.556;2023-04-25T08:11:39;4.73;;;2.27;;
16922;SDS011;8578;50.938;13.556;2023-04-25T08:14:09;2.40;;;1.37;;
16922;SDS011;8578;50.938;13.556;2023-04-25T08:16:37;3.80;;;2.20;;
16922;SDS011;8578;50.938;13.556;2023-04-25T08:19:05;3.33;;;1.90;;
16922;SDS011;8578;50.938;13.556;2023-04-25T08:21:33;4.30;;;1.87;;
16922;SDS011;8578;50.938;13.556;2023-04-25T08:24:04;5.67;;;1.57;;
16922;SDS011;8578;50.938;13.556;2023-04-25T08:26:35;5.40;;;1.80;;
16922;SDS011;8578;50.938;13.556;2023-04-25T08:29:07;5.60;;;2.50;;
16922;SDS011;8578;50.938;13.556;2023-04-25T08:31:38;2.97;;;1.90;;
16922;SDS011;8578;50.938;13.556;2023-04-25T08:34:07;3.80;;;1.67;;
16922;SDS011;8578;50.938;13.556;2023-04-25T08:36:44;4.43;;;1.60;;
16922;SDS011;8578;50.938;13.556;2023-04-25T08:39:18;2.50;;;1.50;;
16922;SDS011;8578;50.938;13.556;2023-04-25T08:42:07;5.50;;;2.20;;
16922;SDS011;8578;50.938;13.556;2023-04-25T08:44:36;4.30;;;1.93;;
16922;SDS011;8578;50.938;13.556;2023-04-25T08:47:05;4.43;;;1.97;;
16922;SDS011;8578;50.938;13.556;2023-04-25T08:49:40;4.67;;;2.30;;
16922;SDS011;8578;50.938;13.556;2023-04-25T08:52:09;4.90;;;2.10;;
16922;SDS011;8578;50.938;13.556;2023-04-25T08:54:38;5.53;;;2.23;;
16922;SDS011;8578;50.938;13.556;2023-04-25T08:57:10;4.93;;;2.50;;
16922;SDS011;8578;50.938;13.556;2023-04-25T08:59:39;5.63;;;2.50;;
16922;SDS011;8578;50.938;13.556;2023-04-25T09:02:11;2.40;;;1.50;;
16922;SDS011;8578;50.938;13.556;2023-04-25T09:04:42;5.47;;;2.10;;
16922;SDS011;8578;50.938;13.556;2023-04-25T09:07:10;4.57;;;1.80;;
16922;SDS011;8578;50.938;13.556;2023-04-25T09:09:38;2.67;;;1.93;;
16922;SDS011;8578;50.938;13.556;2023-04-25T09:12:06;3.80;;;2.40;;
16922;SDS011;8578;50.938;13.556;2023-04-25T09:14:34;4.17;;;2.40;;
16922;SDS011;8578;50.938;13.556;2023-04-25T09:17:17;5.17;;;2.90;;
16922;SDS011;8578;50.938;13.556;2023-04-25T09:19:51;4.90;;;2.50;;
16922;SDS011;8578;50.938;13.556;2023-04-25T09:22:26;6.40;;;2.90;;
16922;SDS011;8578;50.938;13.556;2023-04-25T09:24:54;4.90;;;2.77;;
16922;SDS011;8578;50.938;13.556;2023-04-25T09:27:25;4.97;;;2.00;;
16922;SDS011;8578;50.938;13.556;2023-04-25T09:30:11;7.03;;;2.93;;
16922;SDS011;8578;50.938;13.556;2023-04-25T09:32:54;7.73;;;3.10;;
16922;SDS011;8578;50.938;13.556;2023-04-25T09:35:23;5.37;;;3.30;;
16922;SDS011;8578;50.938;13.556;2023-04-25T09:37:53;5.73;;;3.23;;
16922;SDS011;8578;50.938;13.556;2023-04-25T09:40:40;7.40;;;2.97;;
16922;SDS011;8578;50.938;13.556;2023-04-25T09:43:20;6.10;;;3.27;;
16922;SDS011;8578;50.938;13.556;2023-04-25T09:45:50;5.97;;;3.13;;
16922;SDS011;8578;50.938;13.556;2023-04-25T09:48:19;6.90;;;3.00;;
16922;SDS011;8578;50.938;13.556;2023-04-25T09:51:03;4.40;;;2.60;;
16922;SDS011;8578;50.938;13.556;2023-04-25T09:53:31;5.00;;;2.50;;
16922;SDS011;8578;50.938;13.556;2023-04-25T09:56:10;4.80;;;2.77;;
16922;SDS011;8578;50.938;13.556;2023-04-25T09:58:38;3.37;;;2.50;;
16922;SDS011;8578;50.938;13.556;2023-04-25T10:01:07;5.43;;;2.93;;
16922;SDS011;8578;50.938;13.556;2023-04-25T10:03:46;4.50;;;3.13;;
16922;SDS011;8578;50.938;13.556;2023-04-25T10:06:32;6.50;;;2.10;;
16922;SDS011;8578;50.938;13.556;2023-04-25T10:09:02;4.03;;;3.23;;
16922;SDS011;8578;50.938;13.556;2023-04-25T10:11:30;5.20;;;3.13;;
16922;SDS011;8578;50.938;13.556;2023-04-25T10:13:58;5.53;;;3.10;;
16922;SDS011;8578;50.938;13.556;2023-04-25T10:16:27;4.90;;;3.30;;
16922;SDS011;8578;50.938;13.556;2023-04-25T10:18:57;4.83;;;3.30;;
16922;SDS011;8578;50.938;13.556;2023-04-25T10:21:27;6.20;;;3.07;;
16922;SDS011;8578;50.938;13.556;2023-04-25T10:23:56;4.83;;;3.13;;
16922;SDS011;8578;50.938;13.556;2023-04-25T10:26:24;4.33;;;3.33;;
16922;SDS011;8578;50.938;13.556;2023-04-25T10:28:56;5.63;;;3.47;;
16922;SDS011;8578;50.938;13.556;2023-04-25T10:31:24;5.30;;;3.73;;
16922;SDS011;8578;50.938;13.556;2023-04-25T10:33:53;6.13;;;3.50;;
16922;SDS011;8578;50.938;13.556;2023-04-25T10:36:22;5.70;;;3.10;;
16922;SDS011;8578;50.938;13.556;2023-04-25T10:38:50;6.03;;;2.97;;
16922;SDS011;8578;50.938;13.556;2023-04-25T10:41:18;7.03;;;3.20;;
16922;SDS011;8578;50.938;13.556;2023-04-25T10:43:47;4.20;;;3.20;;
16922;SDS011;8578;50.938;13.556;2023-04-25T10:46:15;4.03;;;3.00;;
16922;SDS011;8578;50.938;13.556;2023-04-25T10:48:47;5.63;;;3.43;;
16922;SDS011;8578;50.938;13.556;2023-04-25T10:51:16;8.90;;;3.70;;
16922;SDS011;8578;50.938;13.556;2023-04-25T10:53:45;7.03;;;3.53;;
16922;SDS011;8578;50.938;13.556;2023-04-25T10:56:16;6.50;;;3.73;;
16922;SDS011;8578;50.938;13.556;2023-04-25T10:58:44;5.30;;;3.40;;
16922;SDS011;8578;50.938;13.556;2023-04-25T11:01:12;5.60;;;3.70;;
16922;SDS011;8578;50.938;13.556;2023-04-25T11:03:40;8.03;;;4.63;;
16922;SDS011;8578;50.938;13.556;2023-04-25T11:06:11;8.87;;;5.13;;
16922;SDS011;8578;50.938;13.556;2023-04-25T11:08:44;7.17;;;4.40;;
16922;SDS011;8578;50.938;13.556;2023-04-25T11:11:16;8.43;;;5.37;;
16922;SDS011;8578;50.938;13.556;2023-04-25T11:13:44;10.83;;;5.90;;
16922;SDS011;8578;50.938;13.556;2023-04-25T11:16:11;7.07;;;5.00;;
16922;SDS011;8578;50.938;13.556;2023-04-25T11:18:52;8.00;;;4.50;;
16922;SDS011;8578;50.938;13.556;2023-04-25T11:21:20;8.43;;;5.40;;
16922;SDS011;8578;50.938;13.556;2023-04-25T11:23:47;9.13;;;5.37;;
16922;SDS011;8578;50.938;13.556;2023-04-25T11:26:16;9.77;;;6.07;;
16922;SDS011;8578;50.938;13.556;2023-04-25T11:28:46;7.60;;;5.77;;
16922;SDS011;8578;50.938;13.556;2023-04-25T11:31:16;7.40;;;4.87;;
16922;SDS011;8578;50.938;13.556;2023-04-25T11:33:47;9.93;;;5.10;;
16922;SDS011;8578;50.938;13.556;2023-04-25T11:36:15;9.23;;;5.40;;
16922;SDS011;8578;50.938;13.556;2023-04-25T11:38:43;7.03;;;4.63;;
16922;SDS011;8578;50.938;13.556;2023-04-25T11:41:10;7.70;;;3.57;;
16922;SDS011;8578;50.938;13.556;2023-04-25T11:43:39;8.77;;;3.50;;
16922;SDS011;8578;50.938;13.556;2023-04-25T11:46:08;6.50;;;2.67;;
16922;SDS011;8578;50.938;13.556;2023-04-25T11:48:36;5.63;;;2.47;;
16922;SDS011;8578;50.938;13.556;2023-04-25T11:51:05;7.50;;;2.23;;
16922;SDS011;8578;50.938;13.556;2023-04-25T11:53:34;6.63;;;2.30;;
16922;SDS011;8578;50.938;13.556;2023-04-25T11:56:02;6.27;;;2.70;;
16922;SDS011;8578;50.938;13.556;2023-04-25T12:01:26;9.27;;;2.80;;
16922;SDS011;8578;50.938;13.556;2023-04-25T12:03:58;6.10;;;2.50;;
16922;SDS011;8578;50.938;13.556;2023-04-25T12:06:27;6.10;;;2.30;;
16922;SDS011;8578;50.938;13.556;2023-04-25T12:08:58;5.03;;;1.90;;
16922;SDS011;8578;50.938;13.556;2023-04-25T12:11:26;4.60;;;2.00;;
16922;SDS011;8578;50.938;13.556;2023-04-25T12:13:54;5.70;;;1.90;;
16922;SDS011;8578;50.938;13.556;2023-04-25T12:16:21;2.77;;;1.17;;
16922;SDS011;8578;50.938;13.556;2023-04-25T12:18:52;6.07;;;1.90;;
16922;SDS011;8578;50.938;13.556;2023-04-25T12:21:20;7.13;;;2.20;;
16922;SDS011;8578;50.938;13.556;2023-04-25T12:23:47;5.30;;;2.23;;
16922;SDS011;8578;50.938;13.556;2023-04-25T12:26:14;7.00;;;2.13;;
16922;SDS011;8578;50.938;13.556;2023-04-25T12:28:44;7.00;;;2.10;;
16922;SDS011;8578;50.938;13.556;2023-04-25T12:31:13;6.10;;;2.27;;
16922;SDS011;8578;50.938;13.556;2023-04-25T12:33:42;6.53;;;2.20;;
16922;SDS011;8578;50.938;13.556;2023-04-25T12:36:15;5.20;;;2.17;;
16922;SDS011;8578;50.938;13.556;2023-04-25T12:38:43;8.83;;;2.67;;
16922;SDS011;8578;50.938;13.556;2023-04-25T12:41:10;4.97;;;2.53;;
16922;SDS011;8578;50.938;13.556;2023-04-25T12:43:38;6.83;;;2.20;;
16922;SDS011;8578;50.938;13.556;2023-04-25T12:46:06;9.90;;;3.13;;
16922;SDS011;8578;50.938;13.556;2023-04-25T12:48:34;9.63;;;2.87;;
16922;SDS011;8578;50.938;13.556;2023-04-25T12:51:01;6.07;;;2.70;;
16922;SDS011;8578;50.938;13.556;2023-04-25T12:53:30;8.60;;;3.30;;
16922;SDS011;8578;50.938;13.556;2023-04-25T12:56:00;10.57;;;2.80;;
16922;SDS011;8578;50.938;13.556;2023-04-25T12:58:28;4.87;;;2.80;;
16922;SDS011;8578;50.938;13.556;2023-04-25T13:00:55;5.13;;;2.83;;
16922;SDS011;8578;50.938;13.556;2023-04-25T13:03:23;5.33;;;2.47;;
16922;SDS011;8578;50.938;13.556;2023-04-25T13:05:50;9.23;;;2.73;;
16922;SDS011;8578;50.938;13.556;2023-04-25T13:08:18;6.87;;;2.30;;
16922;SDS011;8578;50.938;13.556;2023-04-25T13:10:48;7.80;;;2.50;;
16922;SDS011;8578;50.938;13.556;2023-04-25T13:13:15;5.27;;;2.50;;
16922;SDS011;8578;50.938;13.556;2023-04-25T13:15:43;7.10;;;2.50;;
16922;SDS011;8578;50.938;13.556;2023-04-25T13:18:11;8.73;;;3.00;;
16922;SDS011;8578;50.938;13.556;2023-04-25T13:20:39;8.43;;;2.63;;
16922;SDS011;8578;50.938;13.556;2023-04-25T13:23:06;5.33;;;2.00;;
16922;SDS011;8578;50.938;13.556;2023-04-25T13:25:34;7.47;;;2.60;;
16922;SDS011;8578;50.938;13.556;2023-04-25T13:28:03;8.93;;;2.70;;
16922;SDS011;8578;50.938;13.556;2023-04-25T13:30:31;8.00;;;2.60;;
16922;SDS011;8578;50.938;13.556;2023-04-25T13:32:58;3.50;;;2.47;;
16922;SDS011;8578;50.938;13.556;2023-04-25T13:35:30;6.27;;;2.57;;
16922;SDS011;8578;50.938;13.556;2023-04-25T13:37:57;6.37;;;2.47;;
16922;SDS011;8578;50.938;13.556;2023-04-25T13:40:25;7.37;;;2.80;;
16922;SDS011;8578;50.938;13.556;2023-04-25T13:42:53;8.57;;;3.10;;
16922;SDS011;8578;50.938;13.556;2023-04-25T13:45:22;7.47;;;2.60;;
16922;SDS011;8578;50.938;13.556;2023-04-25T13:47:50;10.83;;;2.80;;
16922;SDS011;8578;50.938;13.556;2023-04-25T13:50:17;8.87;;;2.87;;
16922;SDS011;8578;50.938;13.556;2023-04-25T13:52:45;7.53;;;3.43;;
16922;SDS011;8578;50.938;13.556;2023-04-25T13:55:12;8.20;;;3.07;;
16922;SDS011;8578;50.938;13.556;2023-04-25T13:57:40;8.33;;;3.43;;
16922;SDS011;8578;50.938;13.556;2023-04-25T14:00:07;9.87;;;3.60;;
16922;SDS011;8578;50.938;13.556;2023-04-25T14:02:37;10.03;;;3.23;;
16922;SDS011;8578;50.938;13.556;2023-04-25T14:05:05;10.10;;;3.80;;
16922;SDS011;8578;50.938;13.556;2023-04-25T14:07:34;9.60;;;3.87;;
16922;SDS011;8578;50.938;13.556;2023-04-25T14:10:02;10.73;;;3.20;;
16922;SDS011;8578;50.938;13.556;2023-04-25T14:12:30;9.17;;;3.53;;
16922;SDS011;8578;50.938;13.556;2023-04-25T14:14:58;10.57;;;2.97;;
16922;SDS011;8578;50.938;13.556;2023-04-25T14:17:25;9.93;;;2.70;;
16922;SDS011;8578;50.938;13.556;2023-04-25T14:19:55;6.77;;;3.10;;
16922;SDS011;8578;50.938;13.556;2023-04-25T14:22:22;9.17;;;3.20;;
16922;SDS011;8578;50.938;13.556;2023-04-25T14:24:50;11.03;;;2.50;;
16922;SDS011;8578;50.938;13.556;2023-04-25T14:27:18;7.97;;;3.33;;
16922;SDS011;8578;50.938;13.556;2023-04-25T14:29:46;11.73;;;3.10;;
16922;SDS011;8578;50.938;13.556;2023-04-25T14:32:13;10.37;;;3.03;;
16922;SDS011;8578;50.938;13.556;2023-04-25T14:34:41;14.60;;;3.80;;
16922;SDS011;8578;50.938;13.556;2023-04-25T14:37:10;6.03;;;2.57;;
16922;SDS011;8578;50.938;13.556;2023-04-25T14:39:38;10.27;;;3.80;;
16922;SDS011;8578;50.938;13.556;2023-04-25T14:42:06;8.60;;;3.83;;
16922;SDS011;8578;50.938;13.556;2023-04-25T14:44:34;9.43;;;2.90;;
16922;SDS011;8578;50.938;13.556;2023-04-25T14:47:01;7.37;;;3.77;;
16922;SDS011;8578;50.938;13.556;2023-04-25T14:49:29;10.07;;;3.70;;
16922;SDS011;8578;50.938;13.556;2023-04-25T14:51:57;11.23;;;3.90;;
16922;SDS011;8578;50.938;13.556;2023-04-25T14:54:26;8.07;;;3.27;;
16922;SDS011;8578;50.938;13.556;2023-04-25T14:56:55;8.73;;;3.63;;
16922;SDS011;8578;50.938;13.556;2023-04-25T14:59:23;9.57;;;3.73;;
16922;SDS011;8578;50.938;13.556;2023-04-25T15:01:51;13.07;;;3.30;;
16922;SDS011;8578;50.938;13.556;2023-04-25T15:04:19;8.83;;;4.03;;
16922;SDS011;8578;50.938;13.556;2023-04-25T15:06:46;8.07;;;3.20;;
16922;SDS011;8578;50.938;13.556;2023-04-25T15:09:14;12.13;;;3.03;;
16922;SDS011;8578;50.938;13.556;2023-04-25T15:11:46;8.33;;;3.00;;
16922;SDS011;8578;50.938;13.556;2023-04-25T15:14:13;12.53;;;3.37;;